Time;durP1;ratioP1;P1;durP2;ratioP2;P2;SDS_P1;SDS_P2;PMS_P1;PMS_P2;Temp;Humidity;BMP_temperature;BMP_pressure;BME280_temperature;BME280_humidity;BME280_pressure;Samples;Min_cycle;Max_cycle;Signal;HPM_P1;HPM_P2
2022/10/13 00:01:55;;;;;;;17.73;11.83;;;6.60;99.90;;;;;;5033127;28;20199;-62
2022/10/13 00:04:21;;;;;;;14.77;10.30;;;6.60;99.90;;;;;;5033071;28;20174;-62
2022/10/13 00:06:47;;;;;;;19.80;11.97;;;6.50;99.90;;;;;;5033690;28;20175;-62
2022/10/13 00:09:13;;;;;;;23.20;11.37;;;6.60;99.90;;;;;;5032993;28;20229;-62
2022/10/13 00:11:38;;;;;;;19.83;11.67;;;6.60;99.90;;;;;;5033366;28;20253;-62
2022/10/13 00:14:04;;;;;;;18.27;11.93;;;6.60;99.90;;;;;;5031748;28;20175;-63
2022/10/13 00:16:31;;;;;;;14.73;10.70;;;6.70;99.90;;;;;;5033136;28;20183;-63
2022/10/13 00:18:57;;;;;;;19.77;10.73;;;6.70;99.90;;;;;;5032980;28;20183;-62
2022/10/13 00:21:25;;;;;;;15.87;10.77;;;6.80;99.90;;;;;;5032937;28;20167;-63
2022/10/13 00:23:52;;;;;;;15.87;9.87;;;6.70;99.90;;;;;;5031579;28;20179;-62
2022/10/13 00:26:20;;;;;;;14.97;10.20;;;6.70;99.90;;;;;;5032868;28;20225;-62
2022/10/13 00:28:46;;;;;;;16.90;10.27;;;6.70;99.90;;;;;;5033319;28;20175;-62
2022/10/13 00:31:17;;;;;;;15.60;11.17;;;6.80;99.90;;;;;;5033453;28;20186;-63
2022/10/13 00:33:43;;;;;;;13.57;9.60;;;6.80;99.90;;;;;;5037215;28;20249;-62
2022/10/13 00:36:09;;;;;;;12.87;9.63;;;6.70;99.90;;;;;;5036755;28;20175;-63
2022/10/13 00:38:35;;;;;;;13.17;9.77;;;6.80;99.90;;;;;;5036467;28;20171;-63
2022/10/13 00:41:00;;;;;;;13.10;10.23;;;6.80;99.90;;;;;;5036686;28;20524;-63
2022/10/13 00:43:46;;;;;;;15.17;10.33;;;6.90;99.90;;;;;;5036360;28;20198;-63
2022/10/13 00:46:12;;;;;;;12.87;10.07;;;6.90;99.90;;;;;;5036464;28;20198;-63
2022/10/13 00:48:38;;;;;;;12.00;9.60;;;6.90;99.90;;;;;;5036242;28;20187;-63
2022/10/13 00:51:05;;;;;;;10.40;8.53;;;6.90;99.90;;;;;;5036909;28;20175;-62
2022/10/13 00:53:33;;;;;;;11.50;9.17;;;6.90;99.90;;;;;;5036122;28;20206;-62
2022/10/13 00:56:00;;;;;;;12.00;9.57;;;6.90;99.90;;;;;;5036235;28;20175;-62
2022/10/13 00:58:31;;;;;;;12.50;9.10;;;6.90;99.90;;;;;;5036117;28;20715;-62
2022/10/13 01:00:58;;;;;;;12.33;8.63;;;6.90;99.90;;;;;;5036150;28;20205;-62
2022/10/13 01:03:25;;;;;;;13.00;9.90;;;6.90;99.90;;;;;;5036042;28;20191;-62
2022/10/13 01:05:55;;;;;;;12.20;9.07;;;6.90;99.90;;;;;;5035954;28;20171;-62
2022/10/13 01:08:22;;;;;;;12.33;8.93;;;6.90;99.90;;;;;;5034659;28;20179;-63
2022/10/13 01:11:05;;;;;;;11.27;9.27;;;7.00;99.90;;;;;;5036006;28;20294;-62
2022/10/13 01:13:54;;;;;;;10.97;9.10;;;7.00;99.90;;;;;;5035841;28;20203;-62
2022/10/13 01:16:39;;;;;;;11.37;9.60;;;7.00;99.90;;;;;;5036006;28;20160;-62
2022/10/13 01:19:26;;;;;;;11.93;8.70;;;6.90;99.90;;;;;;5034859;28;20228;-62
2022/10/13 01:22:27;;;;;;;11.87;9.10;;;6.90;99.90;;;;;;5036160;28;20199;-62
2022/10/13 01:25:05;;;;;;;12.40;9.63;;;6.90;99.90;;;;;;5035761;28;20179;-63
2022/10/13 01:28:06;;;;;;;11.23;8.83;;;6.90;99.90;;;;;;5035538;28;20193;-62
2022/10/13 01:30:36;;;;;;;10.90;8.80;;;6.80;99.90;;;;;;5034311;28;20199;-63
2022/10/13 01:33:41;;;;;;;13.73;8.67;;;6.80;99.90;;;;;;5035778;28;20206;-62
2022/10/13 01:36:31;;;;;;;9.20;8.03;;;6.80;99.90;;;;;;5033403;28;20229;-63
2022/10/13 01:39:22;;;;;;;10.70;9.60;;;6.80;99.90;;;;;;5033335;28;20183;-63
2022/10/13 01:41:53;;;;;;;11.30;9.50;;;6.90;99.90;;;;;;5035427;28;20561;-62
2022/10/13 01:44:29;;;;;;;10.27;9.03;;;6.90;99.90;;;;;;5035510;28;20163;-63
2022/10/13 01:46:55;;;;;;;9.80;8.67;;;6.90;99.90;;;;;;5035793;28;20163;-62
2022/10/13 01:49:26;;;;;;;12.40;8.50;;;6.90;99.90;;;;;;5035239;28;20226;-63
2022/10/13 01:51:55;;;;;;;10.47;7.97;;;6.90;99.90;;;;;;5035350;28;20263;-62
2022/10/13 01:54:20;;;;;;;12.17;8.50;;;6.90;99.90;;;;;;5035074;28;20707;-62
2022/10/13 01:56:54;;;;;;;9.87;8.87;;;7.00;99.90;;;;;;5033854;28;20258;-65
2022/10/13 01:59:21;;;;;;;10.77;8.33;;;7.00;99.90;;;;;;5035378;28;20654;-66
2022/10/13 02:01:53;;;;;;;10.73;9.17;;;7.00;99.90;;;;;;5035603;28;20209;-65
2022/10/13 02:04:22;;;;;;;12.20;8.80;;;6.90;99.90;;;;;;5035286;28;20152;-66
2022/10/13 02:07:11;;;;;;;13.20;9.53;;;7.00;99.90;;;;;;5033830;28;20183;-65
2022/10/13 02:09:51;;;;;;;10.33;9.10;;;6.90;99.90;;;;;;5035054;28;20156;-65
2022/10/13 02:13:03;;;;;;;11.03;9.37;;;6.90;99.90;;;;;;5034800;28;20207;-65
2022/10/13 02:15:46;;;;;;;10.50;9.17;;;6.90;99.90;;;;;;5033016;28;20186;-65
2022/10/13 02:18:14;;;;;;;11.80;9.17;;;6.90;99.90;;;;;;5012877;28;20188;-65
2022/10/13 02:20:41;;;;;;;14.17;9.63;;;6.90;99.90;;;;;;5014333;28;20224;-66
2022/10/13 02:23:11;;;;;;;13.10;9.03;;;6.80;99.90;;;;;;5013614;28;20203;-65
2022/10/13 02:25:38;;;;;;;9.60;8.60;;;6.80;99.90;;;;;;5014983;28;20244;-65
2022/10/13 02:28:05;;;;;;;11.37;8.80;;;6.80;99.90;;;;;;5014690;28;20598;-65
2022/10/13 02:30:32;;;;;;;10.77;8.03;;;6.80;99.90;;;;;;5029984;28;20207;-66
2022/10/13 02:32:59;;;;;;;11.30;9.00;;;6.80;99.90;;;;;;5015196;28;20199;-66
2022/10/13 02:35:25;;;;;;;9.77;8.27;;;6.80;99.90;;;;;;5015002;28;20190;-66
2022/10/13 02:37:51;;;;;;;12.50;8.57;;;6.80;99.90;;;;;;5014840;28;20708;-66
2022/10/13 02:40:16;;;;;;;12.73;8.60;;;6.80;99.90;;;;;;5014459;28;20178;-66
2022/10/13 02:42:42;;;;;;;19.80;9.50;;;6.80;99.90;;;;;;5014464;28;20188;-66
2022/10/13 02:45:09;;;;;;;9.97;8.37;;;6.80;99.90;;;;;;5013508;28;20262;-66
2022/10/13 02:47:35;;;;;;;10.10;8.50;;;6.80;99.90;;;;;;5021844;28;20643;-65
2022/10/13 02:50:00;;;;;;;12.93;8.87;;;6.80;99.90;;;;;;5034274;28;20175;-66
2022/10/13 02:52:26;;;;;;;10.07;8.90;;;6.80;99.90;;;;;;5034185;28;20214;-65
2022/10/13 02:54:52;;;;;;;12.17;8.27;;;6.80;99.90;;;;;;5033676;28;20175;-65
2022/10/13 02:57:18;;;;;;;10.87;8.20;;;6.90;99.90;;;;;;5032839;28;20179;-67
2022/10/13 02:59:44;;;;;;;12.77;8.83;;;6.90;99.90;;;;;;5033977;28;20181;-67
2022/10/13 03:02:09;;;;;;;11.97;8.13;;;6.90;99.90;;;;;;5033766;28;20289;-67
2022/10/13 03:04:35;;;;;;;11.73;9.70;;;7.00;99.90;;;;;;5032665;28;20174;-67
2022/10/13 03:07:01;;;;;;;13.23;9.53;;;7.00;99.90;;;;;;5033821;28;20526;-67
2022/10/13 03:09:27;;;;;;;15.70;10.13;;;7.00;99.90;;;;;;5033668;28;20187;-67
2022/10/13 03:11:53;;;;;;;10.60;9.27;;;7.00;99.90;;;;;;5034320;28;20199;-67
2022/10/13 03:14:19;;;;;;;10.00;9.00;;;7.00;99.90;;;;;;5032397;28;20178;-67
2022/10/13 03:16:45;;;;;;;13.00;8.90;;;7.10;99.90;;;;;;5033870;28;20183;-67
2022/10/13 03:19:10;;;;;;;14.23;9.27;;;7.10;99.90;;;;;;5033530;28;20185;-67
2022/10/13 03:21:37;;;;;;;11.50;9.77;;;7.10;99.90;;;;;;5033510;28;20189;-67
2022/10/13 03:24:06;;;;;;;13.00;9.80;;;7.10;99.90;;;;;;5033646;28;20237;-67
2022/10/13 03:26:33;;;;;;;10.60;9.47;;;7.20;99.90;;;;;;5033608;28;20172;-67
2022/10/13 03:28:58;;;;;;;16.03;9.77;;;7.20;99.90;;;;;;5033671;28;20553;-67
2022/10/13 03:31:24;;;;;;;12.97;9.90;;;7.20;99.90;;;;;;5032204;28;20171;-67
2022/10/13 03:33:50;;;;;;;11.23;8.77;;;7.20;99.90;;;;;;5033671;28;20198;-67
2022/10/13 03:36:16;;;;;;;13.10;9.03;;;7.20;99.90;;;;;;5033500;28;20184;-67
2022/10/13 03:38:42;;;;;;;13.60;9.10;;;7.20;99.90;;;;;;5031958;28;20175;-67
2022/10/13 03:41:11;;;;;;;13.40;9.43;;;7.20;99.90;;;;;;5032129;28;20179;-67
2022/10/13 03:43:37;;;;;;;12.67;9.03;;;7.20;99.90;;;;;;5033339;28;20270;-67
2022/10/13 03:46:05;;;;;;;12.13;8.97;;;7.30;99.90;;;;;;5031978;28;20182;-68
2022/10/13 03:48:32;;;;;;;11.13;8.90;;;7.30;99.90;;;;;;5031925;28;20179;-67
2022/10/13 03:50:58;;;;;;;10.90;8.77;;;7.30;99.90;;;;;;5032054;28;20632;-67
2022/10/13 03:53:24;;;;;;;13.73;9.37;;;7.30;99.90;;;;;;5033067;28;20199;-67
2022/10/13 03:55:54;;;;;;;11.90;9.40;;;7.30;99.90;;;;;;5033086;28;20174;-67
2022/10/13 03:58:22;;;;;;;12.87;9.97;;;7.40;99.90;;;;;;5033570;28;20183;-67
2022/10/13 04:00:49;;;;;;;15.93;10.20;;;7.40;99.90;;;;;;5031924;28;20174;-67
2022/10/13 04:03:15;;;;;;;10.73;9.53;;;7.40;99.90;;;;;;5032991;28;20244;-67
2022/10/13 04:05:41;;;;;;;11.33;9.77;;;7.40;99.90;;;;;;5033268;28;20175;-67
2022/10/13 04:08:08;;;;;;;12.33;9.77;;;7.40;99.90;;;;;;5037296;28;20185;-67
2022/10/13 04:10:34;;;;;;;10.50;9.27;;;7.40;99.90;;;;;;5037113;28;20179;-67
2022/10/13 04:12:59;;;;;;;14.63;9.17;;;7.40;99.90;;;;;;5037897;28;20571;-67
2022/10/13 04:15:25;;;;;;;15.87;8.97;;;7.40;99.90;;;;;;5038083;28;20250;-67
2022/10/13 04:17:51;;;;;;;14.17;10.03;;;7.40;99.90;;;;;;5037584;28;20517;-67
2022/10/13 04:20:17;;;;;;;11.53;8.67;;;7.40;99.90;;;;;;5037221;28;20199;-67
2022/10/13 04:22:43;;;;;;;16.20;10.23;;;7.40;99.90;;;;;;5036857;28;20260;-67
2022/10/13 04:25:09;;;;;;;13.37;9.03;;;7.40;99.90;;;;;;5036892;28;20179;-67
2022/10/13 04:27:37;;;;;;;11.90;9.43;;;7.40;99.90;;;;;;5035456;28;20600;-67
2022/10/13 04:30:04;;;;;;;13.43;9.80;;;7.40;99.90;;;;;;5036786;28;20164;-67
2022/10/13 04:32:30;;;;;;;18.23;10.00;;;7.40;99.90;;;;;;5035229;28;20203;-67
2022/10/13 04:34:56;;;;;;;15.77;10.83;;;7.40;99.90;;;;;;5036662;28;20186;-67
2022/10/13 04:37:23;;;;;;;15.23;10.63;;;7.40;99.90;;;;;;5036843;28;20171;-67
2022/10/13 04:39:48;;;;;;;14.17;10.37;;;7.50;99.90;;;;;;5036870;28;20518;-67
2022/10/13 04:42:14;;;;;;;13.23;10.43;;;7.50;99.90;;;;;;5036380;28;20206;-67
2022/10/13 04:44:40;;;;;;;16.47;10.40;;;7.50;99.90;;;;;;5036987;28;20176;-67
2022/10/13 04:47:07;;;;;;;15.23;11.33;;;7.50;99.90;;;;;;5036356;28;20179;-67
2022/10/13 04:49:32;;;;;;;14.47;11.23;;;7.50;99.90;;;;;;5036722;28;20178;-67
2022/10/13 04:51:58;;;;;;;16.00;11.50;;;7.50;99.90;;;;;;5035001;28;20207;-67
2022/10/13 04:54:24;;;;;;;20.07;12.10;;;7.50;99.90;;;;;;5036420;28;20182;-67
2022/10/13 04:56:50;;;;;;;18.17;11.93;;;7.50;99.90;;;;;;5036521;28;20190;-67
2022/10/13 04:59:15;;;;;;;19.33;12.47;;;7.50;99.90;;;;;;5036688;28;20167;-66
2022/10/13 05:01:41;;;;;;;16.20;11.90;;;7.50;99.90;;;;;;5036239;28;20195;-67
2022/10/13 05:04:08;;;;;;;20.63;12.30;;;7.50;99.90;;;;;;5036028;28;20182;-67
2022/10/13 05:06:36;;;;;;;19.57;12.20;;;7.50;99.90;;;;;;5035941;28;20195;-67
2022/10/13 05:09:02;;;;;;;22.03;13.03;;;7.50;99.90;;;;;;5034548;28;20206;-67
2022/10/13 05:11:29;;;;;;;16.60;12.13;;;7.50;99.90;;;;;;5034473;28;20538;-67
2022/10/13 05:13:56;;;;;;;15.00;11.37;;;7.50;99.90;;;;;;5035670;28;20195;-67
2022/10/13 05:16:23;;;;;;;13.77;10.67;;;7.40;99.90;;;;;;5035726;28;20258;-67
2022/10/13 05:18:50;;;;;;;13.40;10.03;;;7.40;99.90;;;;;;5035189;28;20179;-67
2022/10/13 05:21:21;;;;;;;17.40;11.17;;;7.40;99.90;;;;;;5035736;28;20258;-67
2022/10/13 05:23:47;;;;;;;15.53;11.00;;;7.40;99.90;;;;;;5036072;28;20167;-67
2022/10/13 05:26:15;;;;;;;13.23;10.33;;;7.40;99.90;;;;;;5036134;28;20233;-67
2022/10/13 05:28:42;;;;;;;16.43;10.93;;;7.40;99.90;;;;;;5035434;28;20191;-67
2022/10/13 05:31:17;;;;;;;14.70;12.27;;;7.40;99.90;;;;;;5035415;28;20232;-67
2022/10/13 05:33:44;;;;;;;16.83;11.20;;;7.40;99.90;;;;;;5035317;28;20690;-67
2022/10/13 05:36:13;;;;;;;19.30;12.37;;;7.50;99.90;;;;;;5035454;28;20171;-68
2022/10/13 05:38:39;;;;;;;14.77;11.63;;;7.40;99.90;;;;;;5035574;28;20164;-67
2022/10/13 05:41:07;;;;;;;20.43;11.80;;;7.40;99.90;;;;;;5035395;28;20193;-67
2022/10/13 05:43:33;;;;;;;18.40;10.77;;;7.40;99.90;;;;;;5035254;28;20195;-67
2022/10/13 05:46:00;;;;;;;15.37;11.40;;;7.40;99.90;;;;;;5035200;28;20180;-67
2022/10/13 05:48:26;;;;;;;19.33;12.13;;;7.40;99.90;;;;;;5033955;28;20183;-67
2022/10/13 05:50:54;;;;;;;16.70;12.00;;;7.40;99.90;;;;;;5033950;28;20175;-67
2022/10/13 05:53:22;;;;;;;18.80;11.10;;;7.50;99.90;;;;;;5034960;28;20241;-68
2022/10/13 05:55:49;;;;;;;16.13;11.77;;;7.50;99.90;;;;;;5034957;28;20175;-67
2022/10/13 05:58:15;;;;;;;15.00;11.73;;;7.50;99.90;;;;;;5035010;28;20169;-67
2022/10/13 06:00:42;;;;;;;17.87;11.70;;;7.50;99.90;;;;;;5035050;28;20175;-68
2022/10/13 06:03:15;;;;;;;14.83;11.60;;;7.50;99.90;;;;;;5035094;28;20201;-68
2022/10/13 06:05:44;;;;;;;14.00;10.67;;;7.50;99.90;;;;;;5035498;28;20217;-66
2022/10/13 06:08:09;;;;;;;22.10;11.90;;;7.50;99.90;;;;;;5033632;28;20175;-66
2022/10/13 06:10:38;;;;;;;16.07;12.27;;;7.60;99.90;;;;;;5034678;28;20258;-66
2022/10/13 06:13:04;;;;;;;17.53;12.27;;;7.60;99.90;;;;;;5034769;28;20290;-66
2022/10/13 06:15:30;;;;;;;16.30;12.03;;;7.60;99.90;;;;;;5035216;28;20206;-66
2022/10/13 06:17:55;;;;;;;17.27;12.27;;;7.60;99.90;;;;;;5034779;28;20179;-64
2022/10/13 06:20:21;;;;;;;20.93;14.53;;;7.60;99.90;;;;;;5034570;28;20673;-66
2022/10/13 06:22:49;;;;;;;19.90;13.47;;;7.70;99.90;;;;;;5035021;28;20226;-67
2022/10/13 06:25:14;;;;;;;21.67;13.33;;;7.70;99.90;;;;;;5034566;28;20183;-67
2022/10/13 06:27:40;;;;;;;18.77;13.23;;;7.80;99.90;;;;;;5034377;28;20585;-66
2022/10/13 06:30:07;;;;;;;19.27;12.60;;;7.80;99.90;;;;;;5033810;28;20255;-66
2022/10/13 06:32:33;;;;;;;16.67;12.47;;;7.80;99.90;;;;;;5034812;28;20277;-65
2022/10/13 06:34:58;;;;;;;20.93;12.47;;;7.80;99.90;;;;;;5034536;28;20222;-65
2022/10/13 06:37:24;;;;;;;17.60;12.40;;;7.90;99.90;;;;;;5034575;28;20251;-66
2022/10/13 06:39:50;;;;;;;19.03;12.23;;;7.90;99.90;;;;;;5034226;28;20242;-66
2022/10/13 06:42:15;;;;;;;18.10;11.53;;;7.90;99.90;;;;;;5034083;28;20193;-66
2022/10/13 06:44:41;;;;;;;16.57;12.87;;;8.00;99.90;;;;;;5034096;28;20635;-66
2022/10/13 06:47:07;;;;;;;23.60;14.07;;;8.00;99.90;;;;;;5033929;28;20187;-66
2022/10/13 06:49:33;;;;;;;19.33;13.83;;;8.00;99.90;;;;;;5034548;28;20644;-66
2022/10/13 06:51:59;;;;;;;22.47;13.17;;;8.00;99.90;;;;;;5033901;28;20202;-66
2022/10/13 06:54:24;;;;;;;19.53;13.10;;;8.10;99.90;;;;;;5034229;28;20203;-66
2022/10/13 06:56:50;;;;;;;19.47;13.80;;;8.10;99.90;;;;;;5034196;28;20587;-69
2022/10/13 06:59:16;;;;;;;21.33;12.87;;;8.10;99.90;;;;;;5032736;28;20179;-66
2022/10/13 07:01:42;;;;;;;25.13;13.63;;;8.20;99.90;;;;;;5034127;28;20568;-66
2022/10/13 07:04:08;;;;;;;24.07;14.00;;;8.20;99.90;;;;;;5033798;28;20180;-66
2022/10/13 07:06:34;;;;;;;21.57;15.60;;;8.30;99.90;;;;;;5034385;28;20171;-66
2022/10/13 07:09:05;;;;;;;19.13;13.83;;;8.30;99.90;;;;;;5032540;28;20175;-66
2022/10/13 07:11:31;;;;;;;21.80;15.03;;;8.30;99.90;;;;;;5033867;28;20159;-66
2022/10/13 07:13:56;;;;;;;22.70;14.60;;;8.40;99.90;;;;;;5034152;28;20203;-66
2022/10/13 07:16:22;;;;;;;21.53;12.93;;;8.40;99.90;;;;;;5032418;28;20182;-66
2022/10/13 07:18:48;;;;;;;20.97;13.87;;;8.50;99.90;;;;;;5033499;28;20214;-66
2022/10/13 07:21:14;;;;;;;25.13;14.67;;;8.60;99.90;;;;;;5033864;28;20167;-66
2022/10/13 07:23:40;;;;;;;22.13;14.93;;;8.70;99.90;;;;;;5033746;28;20672;-64
2022/10/13 07:26:08;;;;;;;19.93;14.63;;;8.70;99.90;;;;;;5033364;28;20178;-64
2022/10/13 07:28:34;;;;;;;24.90;15.90;;;8.80;99.90;;;;;;5033392;28;20186;-64
2022/10/13 07:30:59;;;;;;;27.70;15.37;;;8.90;99.90;;;;;;5033709;28;20217;-64
2022/10/13 07:33:26;;;;;;;22.43;13.70;;;8.90;99.90;;;;;;5033329;28;20231;-64
2022/10/13 07:35:51;;;;;;;16.17;12.20;;;8.90;99.90;;;;;;5033566;28;20167;-64
2022/10/13 07:38:17;;;;;;;19.70;13.87;;;9.00;99.90;;;;;;5033750;28;20566;-64
2022/10/13 07:40:43;;;;;;;20.50;12.67;;;9.10;99.90;;;;;;5033059;28;20171;-63
2022/10/13 07:43:08;;;;;;;19.43;13.10;;;9.20;99.90;;;;;;5033457;28;20206;-63
2022/10/13 07:45:34;;;;;;;18.40;13.13;;;9.30;99.90;;;;;;5033822;28;20178;-63
2022/10/13 07:48:00;;;;;;;21.70;14.80;;;9.40;99.90;;;;;;5033313;28;20186;-63
2022/10/13 07:50:26;;;;;;;21.80;13.50;;;9.50;99.90;;;;;;5033189;28;20182;-63
2022/10/13 07:52:52;;;;;;;19.03;12.73;;;9.60;99.90;;;;;;5033058;28;20715;-63
2022/10/13 07:55:17;;;;;;;19.63;13.47;;;9.80;99.90;;;;;;5033070;28;20202;-65
2022/10/13 07:57:43;;;;;;;20.97;13.63;;;10.00;99.90;;;;;;5033348;28;20171;-65
2022/10/13 08:00:10;;;;;;;19.23;12.90;;;10.20;99.90;;;;;;5033102;28;20164;-64
2022/10/13 08:02:35;;;;;;;18.17;12.90;;;10.40;99.90;;;;;;5033207;28;20650;-64
2022/10/13 08:05:03;;;;;;;19.20;14.07;;;10.70;99.90;;;;;;5033115;28;20255;-65
2022/10/13 08:07:28;;;;;;;19.60;13.93;;;10.90;99.90;;;;;;5033302;28;20207;-65
2022/10/13 08:09:54;;;;;;;24.20;14.67;;;11.20;99.90;;;;;;5031626;28;20207;-65
2022/10/13 08:12:20;;;;;;;21.90;13.93;;;11.40;99.90;;;;;;5032817;28;20289;-65
2022/10/13 08:14:49;;;;;;;18.92;13.07;;;11.50;99.90;;;;;;5032966;28;20206;-64
2022/10/13 08:17:15;;;;;;;20.83;12.23;;;11.70;99.90;;;;;;5032953;28;20588;-64
2022/10/13 08:19:41;;;;;;;20.23;13.45;;;11.80;99.90;;;;;;5031705;28;20179;-64
2022/10/13 08:22:09;;;;;;;23.23;12.93;;;11.90;99.90;;;;;;5032887;28;20202;-64
2022/10/13 08:24:35;;;;;;;17.33;11.18;;;12.00;99.90;;;;;;5032940;28;20206;-65
2022/10/13 08:27:00;;;;;;;22.23;12.20;;;12.10;99.90;;;;;;5031586;28;20202;-64
2022/10/13 08:29:26;;;;;;;24.10;12.10;;;12.20;99.90;;;;;;5031674;28;20225;-64
2022/10/13 08:31:54;;;;;;;19.47;11.30;;;12.20;99.90;;;;;;5032662;28;20253;-64
2022/10/13 08:34:21;;;;;;;15.13;10.88;;;12.20;99.90;;;;;;5033351;28;20167;-64
2022/10/13 08:36:51;;;;;;;14.88;11.02;;;12.30;99.90;;;;;;5033119;28;20191;-64
2022/10/13 08:39:17;;;;;;;17.27;11.73;;;12.30;99.90;;;;;;5032621;28;20671;-65
2022/10/13 08:41:43;;;;;;;15.73;11.27;;;12.40;99.90;;;;;;5032681;28;20191;-64
2022/10/13 08:44:21;;;;;;;19.17;11.68;;;12.50;99.90;;;;;;5032701;28;20175;-64
2022/10/13 08:47:26;;;;;;;17.67;11.25;;;12.60;99.90;;;;;;5033235;28;20163;-65
2022/10/13 08:49:58;;;;;;;14.13;9.35;;;12.70;99.90;;;;;;5004592;28;20680;-65
2022/10/13 08:52:27;;;;;;;17.15;11.30;;;12.70;99.90;;;;;;5013684;28;20204;-65
2022/10/13 08:54:54;;;;;;;18.85;10.95;;;12.80;99.90;;;;;;5016344;28;20168;-64
2022/10/13 08:57:21;;;;;;;16.05;10.02;;;12.90;99.90;;;;;;5016399;28;20180;-65
2022/10/13 08:59:47;;;;;;;19.35;10.30;;;13.10;99.90;;;;;;5016396;28;20160;-65
2022/10/13 09:02:28;;;;;;;15.75;9.90;;;13.20;99.90;;;;;;5016574;28;20664;-64
2022/10/13 09:04:56;;;;;;;14.85;9.20;;;13.40;99.90;;;;;;5016545;28;20625;-65
2022/10/13 09:07:28;;;;;;;15.90;9.07;;;13.60;99.90;;;;;;5016375;28;20199;-65
2022/10/13 09:09:54;;;;;;;12.23;8.13;;;13.80;99.90;;;;;;5016294;28;20182;-65
2022/10/13 09:12:25;;;;;;;14.63;9.52;;;14.00;99.90;;;;;;5016303;28;20203;-65
2022/10/13 09:15:06;;;;;;;15.38;8.77;;;14.10;99.90;;;;;;5016886;28;20156;-64
2022/10/13 09:17:33;;;;;;;15.38;8.05;;;14.20;99.90;;;;;;5022640;28;20254;-64
2022/10/13 09:20:02;;;;;;;16.10;8.90;;;14.40;99.90;;;;;;5036051;28;20183;-64
2022/10/13 09:22:36;;;;;;;12.82;8.82;;;14.60;99.90;;;;;;5035679;28;20607;-65
2022/10/13 09:25:21;;;;;;;12.85;7.97;;;14.70;99.90;;;;;;5035851;28;20170;-65
2022/10/13 09:27:56;;;;;;;13.75;8.57;;;14.70;99.90;;;;;;5035638;28;20202;-64
2022/10/13 09:30:34;;;;;;;18.20;8.02;;;14.80;99.90;;;;;;5035713;28;20202;-65
2022/10/13 09:33:11;;;;;;;14.63;8.55;;;15.00;99.90;;;;;;5035581;28;20230;-65
2022/10/13 09:35:39;;;;;;;12.25;8.00;;;15.00;99.90;;;;;;5036071;28;20175;-64
2022/10/13 09:38:16;;;;;;;14.38;8.05;;;15.00;99.90;;;;;;5036507;28;20202;-65
2022/10/13 09:40:54;;;;;;;15.13;8.30;;;14.90;99.90;;;;;;5035392;28;20613;-64
2022/10/13 09:43:29;;;;;;;13.35;8.05;;;14.80;99.90;;;;;;5034064;28;20207;-64
2022/10/13 09:45:56;;;;;;;15.25;8.75;;;14.80;99.90;;;;;;5035638;28;20245;-64
2022/10/13 09:48:29;;;;;;;15.13;8.13;;;14.70;99.90;;;;;;5034003;28;20734;-64
2022/10/13 09:50:56;;;;;;;12.93;7.85;;;14.70;99.90;;;;;;5035238;28;20187;-64
2022/10/13 09:53:22;;;;;;;14.57;8.40;;;14.80;99.90;;;;;;5034978;28;20237;-64
2022/10/13 09:55:48;;;;;;;17.00;8.18;;;14.90;99.90;;;;;;5033690;28;20214;-64
2022/10/13 09:58:28;;;;;;;15.95;7.85;;;15.10;99.90;;;;;;5035076;28;20170;-64
2022/10/13 10:00:56;;;;;;;13.43;7.57;;;15.20;99.90;;;;;;5035268;28;20156;-64
2022/10/13 10:03:28;;;;;;;12.32;8.02;;;15.30;99.90;;;;;;5034893;28;20187;-64
2022/10/13 10:05:56;;;;;;;13.55;7.85;;;15.40;99.90;;;;;;5035150;28;20163;-64
2022/10/13 10:08:50;;;;;;;12.57;7.45;;;15.40;99.90;;;;;;5035060;28;20179;-64
2022/10/13 10:11:28;;;;;;;13.05;8.18;;;15.30;99.90;;;;;;5033599;28;20183;-64
2022/10/13 10:13:54;;;;;;;12.10;7.93;;;15.20;99.90;;;;;;5034704;28;20202;-65
2022/10/13 10:16:34;;;;;;;14.40;8.70;;;15.10;99.90;;;;;;5034757;28;20260;-65
2022/10/13 10:19:25;;;;;;;12.55;8.07;;;15.00;99.90;;;;;;5034579;28;20218;-65
2022/10/13 10:22:09;;;;;;;16.08;7.53;;;15.00;99.90;;;;;;5034739;28;20195;-64
2022/10/13 10:24:49;;;;;;;13.10;7.40;;;15.10;99.90;;;;;;5034598;28;20157;-65
2022/10/13 10:27:22;;;;;;;16.23;8.55;;;15.20;99.90;;;;;;5034691;28;20167;-65
2022/10/13 10:29:49;;;;;;;11.10;7.35;;;15.40;99.90;;;;;;5034713;28;20558;-64
2022/10/13 10:32:45;;;;;;;11.48;7.38;;;15.40;99.90;;;;;;5034417;28;20207;-65
2022/10/13 10:35:51;;;;;;;14.80;8.35;;;15.50;99.90;;;;;;5034613;28;20690;-64
2022/10/13 10:38:38;;;;;;;17.27;7.60;;;15.60;99.90;;;;;;5034563;28;20487;-64
2022/10/13 10:41:15;;;;;;;15.15;7.90;;;15.70;99.90;;;;;;5034167;28;20164;-64
2022/10/13 10:43:44;;;;;;;11.30;7.63;;;15.70;99.90;;;;;;5034317;28;20194;-64
2022/10/13 10:46:17;;;;;;;12.77;7.43;;;15.60;99.90;;;;;;5034360;28;20197;-64
2022/10/13 10:48:45;;;;;;;10.52;7.03;;;15.60;99.90;;;;;;5033974;28;20179;-64
2022/10/13 10:51:13;;;;;;;14.55;8.20;;;15.60;99.90;;;;;;5034466;28;20178;-64
2022/10/13 10:53:48;;;;;;;13.35;7.45;;;15.50;99.90;;;;;;5033741;28;20214;-64
2022/10/13 10:56:20;;;;;;;14.30;7.55;;;15.40;99.90;;;;;;5033896;28;20599;-64
2022/10/13 10:58:52;;;;;;;13.50;8.18;;;15.40;99.90;;;;;;5034485;28;20598;-68
2022/10/13 11:01:40;;;;;;;16.77;8.65;;;15.30;99.90;;;;;;5034219;28;20642;-68
2022/10/13 11:04:14;;;;;;;14.18;7.32;;;15.30;99.90;;;;;;5033786;28;20266;-68
2022/10/13 11:06:40;;;;;;;17.17;7.65;;;15.20;99.90;;;;;;5034081;28;20158;-67
2022/10/13 11:09:08;;;;;;;13.88;7.88;;;15.20;99.90;;;;;;5034464;28;20178;-66
2022/10/13 11:11:37;;;;;;;12.73;8.05;;;15.20;99.90;;;;;;5033618;28;20708;-66
2022/10/13 11:14:06;;;;;;;11.82;7.15;;;15.30;99.90;;;;;;5033729;28;20228;-66
2022/10/13 11:16:37;;;;;;;11.48;6.90;;;15.30;99.90;;;;;;5033159;28;20221;-66
2022/10/13 11:19:35;;;;;;;11.68;7.45;;;15.30;99.90;;;;;;5033559;28;20186;-66
2022/10/13 11:22:01;;;;;;;12.00;7.68;;;15.20;99.90;;;;;;5033573;28;20274;-66
2022/10/13 11:24:33;;;;;;;10.63;6.95;;;15.30;99.90;;;;;;5033709;28;20262;-66
2022/10/13 11:27:09;;;;;;;12.25;7.78;;;15.40;99.90;;;;;;5033542;28;20178;-68
2022/10/13 11:29:56;;;;;;;10.73;7.28;;;15.60;99.90;;;;;;5033022;28;20170;-68
2022/10/13 11:35:04;;;;;;;14.73;7.57;;;16.00;99.90;;;;;;5034014;28;20530;-64
2022/10/13 11:37:56;;;;;;;16.88;7.55;;;16.30;99.90;;;;;;5032845;28;20225;-63
2022/10/13 11:40:50;;;;;;;12.55;6.47;;;16.60;99.90;;;;;;5032724;28;20244;-63
2022/10/13 11:43:58;;;;;;;9.73;6.63;;;16.80;99.90;;;;;;5033394;28;20198;-64
2022/10/13 11:46:45;;;;;;;10.30;6.25;;;16.90;99.90;;;;;;5033803;28;20178;-64
2022/10/13 11:49:40;;;;;;;11.50;6.43;;;17.30;99.90;;;;;;5033118;28;20186;-64
2022/10/13 11:52:28;;;;;;;14.13;6.30;;;17.60;99.90;;;;;;5033041;28;20226;-63
2022/10/13 11:55:10;;;;;;;14.00;6.30;;;17.70;99.90;;;;;;5033669;28;20536;-64
2022/10/13 11:57:35;;;;;;;13.32;6.03;;;18.00;99.90;;;;;;5031874;28;20628;-64
2022/10/13 12:00:03;;;;;;;11.80;5.90;;;18.20;99.90;;;;;;5033074;28;20179;-64
2022/10/13 12:02:29;;;;;;;12.75;6.10;;;18.10;99.90;;;;;;5031723;28;20206;-63
2022/10/13 12:05:18;;;;;;;9.80;5.82;;;18.10;99.90;;;;;;5033054;28;20179;-63
2022/10/13 12:07:46;;;;;;;8.50;5.50;;;18.20;99.90;;;;;;5033269;28;20172;-63
2022/10/13 12:10:42;;;;;;;8.43;6.05;;;18.10;99.90;;;;;;5032913;28;20254;-64
2022/10/13 12:13:21;;;;;;;10.85;6.25;;;17.90;99.90;;;;;;5031623;28;20223;-63
2022/10/13 12:15:46;;;;;;;10.80;5.88;;;17.70;99.90;;;;;;5033053;28;20163;-63
2022/10/13 12:18:28;;;;;;;10.77;5.63;;;17.40;99.90;;;;;;5032993;28;20523;-64
2022/10/13 12:21:16;;;;;;;12.63;6.25;;;17.20;99.90;;;;;;5033219;28;20624;-63
2022/10/13 12:23:42;;;;;;;9.32;5.50;;;17.10;99.90;;;;;;5032719;28;20679;-63
2022/10/13 12:26:21;;;;;;;11.15;6.13;;;16.90;99.90;;;;;;5032827;28;20211;-63
2022/10/13 12:28:53;;;;;;;9.68;6.03;;;16.80;99.90;;;;;;5036054;28;20277;-63
2022/10/13 12:31:22;;;;;;;10.65;5.70;;;16.70;99.90;;;;;;5037040;28;20666;-63
2022/10/13 12:33:55;;;;;;;9.20;5.97;;;16.70;99.90;;;;;;5036580;28;20202;-64
2022/10/13 12:36:30;;;;;;;8.82;5.32;;;16.60;99.90;;;;;;5035294;28;20221;-63
2022/10/13 12:39:03;;;;;;;10.93;5.70;;;16.50;99.90;;;;;;5036556;28;20179;-63
2022/10/13 12:41:35;;;;;;;10.10;5.45;;;16.50;99.90;;;;;;5036316;28;20206;-63
2022/10/13 12:44:02;;;;;;;10.10;4.97;;;16.50;99.90;;;;;;5036547;28;20164;-64
2022/10/13 12:46:45;;;;;;;10.27;5.43;;;16.50;99.90;;;;;;5035145;28;20187;-63
2022/10/13 12:49:16;;;;;;;10.98;6.18;;;16.40;99.90;;;;;;5036391;28;20186;-64
2022/10/13 12:51:45;;;;;;;15.57;8.38;;;16.30;99.90;;;;;;5036270;28;20203;-65
2022/10/13 12:54:19;;;;;;;15.02;6.85;;;16.30;99.90;;;;;;5036265;28;20612;-64
2022/10/13 12:56:45;;;;;;;12.65;6.05;;;16.30;99.90;;;;;;5036226;28;20205;-63
2022/10/13 12:59:16;;;;;;;10.40;6.05;;;16.20;99.90;;;;;;5034914;28;20186;-64